Latest Weather Observations for Goulburn Airport

IDN60901

Issued at 7:31 pm EST Friday 31 July 2015 (issued every 10 minutes, with the page automatically refreshed every 10 minutes)

About weather observations | Map of Canberra area stations | Latest observations for Canberra area | Other Formats
Station Details ID: 070330 Name: GOULBURN AIRPORT AWS Lat: -34.81 Lon: 149.73 Height: 640.0 m
Data from the previous 72 hours. | See also: Recent months at Goulburn Airport
Date/Time
EST
Tmp

°C
App
Tmp
°C
Dew
Point
°C
Rel
Hum
%
Delta-T

°C
Wind Press
QNH
hPa
Press
MSL
hPa
Rain
since
9 am
mm
Dir
 
Spd
km/h
Gust
km/h
Spd
kts
Gust
kts
31/07:30pm 6.2 1.1 2.8 79 1.5 NNW 19 20 10 11 1020.5 1021.6 0.0
31/07:00pm 6.1 2.1 2.6 78 1.5 N 13 17 7 9 1020.4 1021.5 0.0
31/06:30pm 6.7 4.1 3.0 77 1.6 N 6 17 3 9 1020.6 1021.7 0.0
31/05:30pm 9.3 6.2 3.5 67 2.6 NW 9 11 5 6 1020.1 1021.2 0.0
31/05:00pm 10.0 5.7 3.3 63 3.0 WNW 15 19 8 10 1020.0 1021.1 0.0
31/04:30pm 10.5 5.4 2.8 59 3.4 WNW 19 22 10 12 1019.6 1020.7 0.0
31/04:00pm 12.3 7.3 3.5 55 4.1 WNW 19 24 10 13 1019.5 1020.6 0.0
31/03:30pm 13.1 7.5 3.2 51 4.6 W 22 28 12 15 1019.6 1020.7 0.0
31/03:00pm 13.9 8.2 2.8 47 5.1 W 22 30 12 16 1019.5 1020.6 0.0
31/02:30pm 14.3 9.1 3.7 49 5.0 W 20 32 11 17 1019.5 1020.6 0.0
31/02:00pm 14.1 9.9 3.6 49 4.9 W 15 28 8 15 1019.4 1020.5 0.0
31/01:30pm 12.0 6.3 2.7 53 4.2 WSW 22 32 12 17 1020.1 1021.2 0.0
31/01:00pm 13.6 8.5 3.1 49 4.8 W 19 24 10 13 1020.2 1021.3 0.0
31/12:30pm 13.2 8.2 3.8 53 4.4 W 19 28 10 15 1020.4 1021.5 0.0
31/12:00pm 12.3 7.5 2.5 51 4.4 W 17 28 9 15 1020.7 1021.8 0.0
31/11:30am 11.8 7.0 2.8 54 4.1 WNW 17 22 9 12 1021.2 1022.4 0.0
31/11:00am 11.5 7.6 3.3 57 3.7 NW 13 19 7 10 1021.2 1022.4 0.0
31/10:30am 10.6 6.7 3.6 62 3.2 WNW 13 17 7 9 1021.3 1022.5 0.0
31/10:00am 9.6 4.5 2.9 63 3.0 WNW 19 24 10 13 1021.3 1022.5 0.0
31/09:30am 9.2 4.1 3.2 66 2.7 WNW 19 24 10 13 1021.1 1022.3 0.0
31/09:00am 8.2 3.5 2.9 69 2.3 WNW 17 20 9 11 1020.9 1022.0 0.0
31/08:30am 7.2 2.0 2.7 73 1.9 W 19 24 10 13 1020.6 1021.7 0.0
31/08:00am 5.6 0.8 2.8 82 1.2 W 17 20 9 11 1020.3 1021.4 0.0
31/07:30am 2.4 -1.9 0.9 90 0.6 W 13 15 7 8 1020.0 1021.1 0.0
31/07:00am 2.2 -1.9 0.1 86 0.8 W 11 15 6 8 1019.6 1020.7 0.0
31/06:30am 3.0 -1.7 0.9 86 0.8 WNW 15 17 8 9 1019.0 1020.1 0.0
31/06:00am 3.7 -0.6 1.1 83 1.0 WNW 13 17 7 9 1018.6 1019.7 0.0
31/05:30am 4.6 0.8 1.8 82 1.2 W 11 17 6 9 1018.5 1019.6 0.0
31/05:00am 4.5 0.3 1.4 80 1.3 W 13 17 7 9 1018.5 1019.6 0.0
31/04:30am 5.6 0.2 2.3 79 1.4 W 20 30 11 16 1017.9 1019.0 0.0
31/04:00am 5.5 0.1 2.2 79 1.4 WSW 20 28 11 15 1018.1 1019.2 0.0
31/03:30am 5.4 -0.1 1.9 78 1.5 W 20 26 11 14 1017.9 1019.0 0.0
31/03:00am 5.3 0.3 1.4 76 1.6 WNW 17 20 9 11 1017.8 1018.9 0.0
31/02:30am 6.2 0.7 1.9 74 1.8 NW 20 28 11 15 1018.3 1019.3 0.0
31/02:00am 6.2 0.0 1.9 74 1.8 NW 24 32 13 17 1018.3 1019.3 0.0
31/01:30am 6.2 0.9 2.1 75 1.7 NW 19 28 10 15 1018.4 1019.4 0.0
31/01:00am 5.8 0.3 2.1 77 1.6 NW 20 26 11 14 1018.5 1019.6 0.0
31/12:30am 5.4 0.2 2.2 80 1.3 WNW 19 24 10 13 1019.0 1020.1 0.0
31/12:00am 4.1 0.6 1.3 82 1.1 WNW 9 11 5 6 1019.4 1020.4 0.0
 
Date/Time
EST
Tmp

°C
App
Tmp
°C
Dew
Point
°C
Rel
Hum
%
Delta-T

°C
Wind Press
QNH
hPa
Press
MSL
hPa
Rain
since
9 am
mm
Dir
 
Spd
km/h
Gust
km/h
Spd
kts
Gust
kts
30/11:30pm 4.7 2.0 2.6 86 0.9 NNE 6 7 3 4 1019.5 1020.6 0.0
30/11:00pm 3.0 -0.1 1.1 87 0.8 E 7 9 4 5 1020.1 1021.2 0.0
30/10:30pm 4.3 1.3 1.7 83 1.1 NW 7 11 4 6 1020.2 1021.3 0.0
30/10:00pm 3.8 -0.2 0.8 81 1.2 NW 11 13 6 7 1019.6 1020.7 0.0
30/09:30pm 3.9 -0.4 0.8 80 1.2 NW 13 17 7 9 1019.6 1020.7 0.0
30/09:00pm 4.1 -0.2 1.1 81 1.2 NW 13 17 7 9 1020.0 1021.1 0.0
30/08:30pm 3.9 -0.1 0.6 79 1.3 W 11 15 6 8 1020.1 1021.2 0.0
30/08:00pm 6.0 1.1 1.7 74 1.8 NNW 17 20 9 11 1019.4 1020.5 0.0
30/07:30pm 5.9 1.4 2.0 76 1.6 NW 15 17 8 9 1020.1 1021.2 0.0
30/07:00pm 6.4 1.5 1.7 72 2.0 WNW 17 19 9 10 1020.4 1021.5 0.0
30/06:30pm 7.3 1.4 1.8 68 2.3 WNW 22 28 12 15 1020.3 1021.4 0.0
30/06:00pm 7.9 0.8 1.3 63 2.8 WNW 28 35 15 19 1020.1 1021.2 0.0
30/05:30pm 8.2 1.1 1.6 63 2.8 WNW 28 35 15 19 1019.9 1021.0 0.0
30/05:00pm 8.8 2.9 1.9 62 3.0 NW 22 30 12 16 1019.9 1021.0 0.0
30/04:30pm 9.7 3.1 2.1 59 3.3 NW 26 33 14 18 1019.5 1020.6 0.0
30/04:00pm 9.7 1.9 1.4 56 3.6 NW 32 43 17 23 1019.7 1020.9 0.0
30/03:30pm 10.2 1.8 1.3 54 3.8 WNW 35 46 19 25 1020.2 1021.3 0.0
30/03:00pm 10.3 0.7 0.9 52 4.0 WNW 41 54 22 29 1020.1 1021.2 0.0
30/02:41pm 10.2 1.3 0.8 52 4.0 WNW 37 56 20 30 1020.5 1021.6 0.0
30/02:30pm 10.3 1.8 1.2 53 3.9 WNW 35 46 19 25 1020.7 1021.8 0.0
30/02:00pm 10.7 2.7 0.2 48 4.4 WNW 32 43 17 23 1021.1 1022.3 0.0
30/01:30pm 11.8 3.8 0.3 45 4.9 NW 32 41 17 22 1021.7 1022.8 0.0
30/01:00pm 11.9 3.6 -0.3 43 5.1 WNW 33 54 18 29 1022.0 1023.1 0.0
30/12:53pm 11.3 3.0 -0.2 45 4.8 WNW 33 54 18 29 1022.2 1023.3 0.0
30/12:30pm 11.3 3.8 1.5 51 4.3 NW 30 43 16 23 1022.5 1023.7 0.0
30/12:00pm 10.9 1.6 0.3 48 4.5 WNW 39 50 21 27 1022.8 1024.0 0.0
30/11:30am 10.6 1.0 1.2 52 4.1 NW 41 50 22 27 1023.1 1024.3 0.0
30/11:00am 10.5 1.0 1.9 55 3.8 NW 41 50 22 27 1023.4 1024.5 0.0
30/10:30am 9.9 0.1 2.3 59 3.3 WNW 43 52 23 28 1023.8 1025.0 0.0
30/10:00am 8.5 0.8 2.1 64 2.8 NW 32 43 17 23 1024.4 1025.6 0.0
30/09:30am 8.2 2.6 3.3 71 2.2 NW 22 30 12 16 1024.7 1025.9 0.0
30/09:00am 6.8 2.1 3.1 77 1.6 NW 17 26 9 14 1024.9 1026.0 0.2
30/08:30am 5.3 0.9 2.8 84 1.1 NNW 15 19 8 10 1025.1 1026.3 0.2
30/08:00am 3.1 -1.1 1.9 92 0.5 NW 13 17 7 9 1025.2 1026.4 0.2
30/07:30am 1.0 -3.8 0.0 93 0.4 NW 15 15 8 8 1025.1 1026.3 0.2
30/07:00am 0.9 -3.2 -0.2 92 0.4 NW 11 13 6 7 1025.2 1026.4 0.2
30/06:30am 0.9 -3.5 0.5 97 0.2 NNW 13 15 7 8 1025.0 1026.1 0.2
30/06:00am -1.2 -3.8 -1.9 95 0.2 N 2 9 1 5 1025.0 1026.1 0.2
30/05:30am -1.5 -3.8 -2.3 94 0.2 CALM 0 0 0 0 1025.3 1026.5 0.2
30/05:00am -1.1 -3.3 -1.7 96 0.2 CALM 0 0 0 0 1025.4 1026.6 0.2
30/04:30am -1.3 -4.0 -2.1 94 0.2 NE 2 7 1 4 1025.7 1026.9 0.2
30/04:00am -0.8 -3.4 -1.5 95 0.2 ENE 2 7 1 4 1025.9 1027.1 0.2
30/03:30am -0.5 -2.6 -1.1 96 0.2 CALM 0 0 0 0 1026.2 1027.4 0.2
30/03:00am -1.6 -3.9 -2.4 94 0.2 CALM 0 0 0 0 1026.4 1027.7 0.2
30/02:30am -0.7 -2.9 -1.4 95 0.2 CALM 0 0 0 0 1027.0 1028.2 0.2
30/02:00am -0.3 -3.2 -1.0 95 0.2 W 4 7 2 4 1027.1 1028.3 0.2
30/01:30am -0.3 -3.2 -1.1 94 0.3 NNW 4 7 2 4 1027.4 1028.6 0.2
30/01:00am -0.3 -2.5 -1.3 93 0.3 CALM 0 0 0 0 1027.5 1028.7 0.2
30/12:30am -0.3 -2.5 -1.4 92 0.4 CALM 0 4 0 2 1028.0 1029.3 0.2
30/12:00am 0.0 -3.0 -1.6 89 0.6 ESE 4 7 2 4 1028.5 1029.7 0.2
 
Date/Time
EST
Tmp

°C
App
Tmp
°C
Dew
Point
°C
Rel
Hum
%
Delta-T

°C
Wind Press
QNH
hPa
Press
MSL
hPa
Rain
since
9 am
mm
Dir
 
Spd
km/h
Gust
km/h
Spd
kts
Gust
kts
29/11:30pm 2.0 -1.3 0.2 88 0.7 W 7 7 4 4 1029.0 1030.3 0.2
29/11:00pm 2.3 -0.4 0.5 88 0.7 WNW 4 7 2 4 1029.2 1030.5 0.2
29/10:30pm 2.0 -1.4 -0.4 84 0.9 N 7 9 4 5 1029.1 1030.4 0.2
29/10:00pm 1.7 -1.3 0.5 92 0.5 W 6 9 3 5 1029.2 1030.5 0.2
29/09:30pm 1.3 -0.7 -0.2 90 0.6 CALM 0 0 0 0 1029.1 1030.4 0.2
29/09:00pm 1.5 -0.5 -0.3 88 0.7 CALM 0 0 0 0 1029.9 1031.1 0.2
29/08:30pm 1.9 0.0 0.3 89 0.6 CALM 0 0 0 0 1029.9 1031.1 0.2
29/08:00pm 1.2 -0.9 -0.6 88 0.7 CALM 0 0 0 0 1030.0 1031.2 0.2
29/07:30pm 1.4 -0.7 -0.7 86 0.8 CALM 0 6 0 3 1029.7 1031.0 0.2
29/07:00pm 2.1 0.1 -0.3 84 0.9 CALM 0 0 0 0 1029.4 1030.7 0.2
29/06:30pm 3.4 1.5 0.3 80 1.2 CALM 0 0 0 0 1029.5 1030.8 0.2
29/06:00pm 3.1 -1.0 -0.5 77 1.4 W 11 13 6 7 1029.4 1030.7 0.2
29/05:30pm 5.0 0.5 -0.4 68 2.1 W 13 15 7 8 1029.1 1030.4 0.2
29/05:00pm 8.6 3.5 0.6 57 3.3 W 17 20 9 11 1029.4 1030.7 0.2
29/04:30pm 10.9 5.5 1.4 52 4.1 W 19 22 10 12 1029.2 1030.5 0.2
29/04:00pm 11.7 7.5 1.6 50 4.4 WNW 13 20 7 11 1029.3 1030.6 0.2
29/03:30pm 12.5 8.6 1.2 46 5.0 NNW 11 17 6 9 1029.2 1030.5 0.2
29/03:00pm 12.5 7.6 -0.4 41 5.4 NW 15 22 8 12 1029.3 1030.6 0.2
29/02:30pm 12.5 6.9 0.0 42 5.4 NNW 19 24 10 13 1029.5 1030.8 0.2
29/02:00pm 12.6 8.3 1.0 45 5.0 NW 13 22 7 12 1030.1 1031.3 0.2
29/01:30pm 12.5 8.2 0.9 45 5.1 NW 13 22 7 12 1030.5 1031.8 0.2
29/01:00pm 11.9 7.4 -0.3 43 5.1 NNW 13 24 7 13 1031.1 1032.4 0.2
29/12:30pm 10.8 7.4 1.9 54 3.9 W 9 15 5 8 1031.8 1033.1 0.0
29/12:00pm 10.5 7.6 2.6 58 3.5 N 7 11 4 6 1032.4 1033.7 0.0
29/11:30am 9.4 7.2 3.4 66 2.7 NE 4 7 2 4 1032.9 1034.3 0.0
29/11:00am 7.1 4.5 4.4 83 1.2 SE 7 9 4 5 1033.6 1034.9 0.0
29/10:30am 5.1 3.4 3.8 91 0.6 S 2 9 1 5 1034.0 1035.3 0.0
29/10:00am 3.5 0.8 2.9 96 0.2 NE 6 7 3 4 1034.3 1035.7 0.0
29/09:52am 2.6 0.2 2.3 98 0.1 E 4 7 2 4 1034.3 1035.7 0.0
29/09:30am 1.4 -0.4 1.1 98 0.1 CALM 0 7 0 4 1034.5 1035.9 0.0
29/09:00am -1.0 -3.2 -1.3 98 0.1 CALM 0 0 0 0 1034.7 1036.1 0.0
29/08:30am -2.7 -5.1 -3.2 96 0.0 CALM 0 0 0 0 1034.6 1036.0 0.0
29/08:00am -3.3 -5.8 -4.0 95 0.1 CALM 0 0 0 0 1034.6 1036.0 0.0
29/07:30am -3.3 -5.8 -3.8 96 0.0 CALM 0 4 0 2 1034.5 1035.9 0.0
29/07:00am -3.1 -5.6 -3.6 96 0.0 CALM 0 0 0 0 1034.1 1035.4 0.0
29/06:30am -3.3 -5.8 -3.8 96 0.0 CALM 0 0 0 0 1033.7 1035.0 0.0
29/06:00am -3.6 -6.1 -4.3 95 0.1 CALM 0 0 0 0 1033.5 1034.8 0.0
29/05:30am -3.4 -5.9 -3.9 96 0.0 CALM 0 0 0 0 1033.3 1034.6 0.0
29/05:00am -3.4 -5.9 -3.9 96 0.0 CALM 0 0 0 0 1033.3 1034.6 0.0
29/04:30am -4.0 -7.0 -4.7 95 0.1 SSE 2 6 1 3 1033.3 1034.6 0.0
29/04:00am -4.3 -6.9 -5.0 95 0.0 CALM 0 0 0 0 1033.0 1034.4 0.0
29/03:30am -3.9 -6.5 -4.6 95 0.1 CALM 0 0 0 0 1032.9 1034.3 0.0
29/03:00am -3.9 -6.5 -4.6 95 0.1 CALM 0 0 0 0 1032.7 1034.0 0.0
29/02:30am -3.7 -6.2 -4.4 95 0.1 CALM 0 0 0 0 1033.1 1034.5 0.0
29/02:00am -3.1 -5.6 -3.8 95 0.1 CALM 0 0 0 0 1033.3 1034.6 0.0
29/01:35am -2.9 -5.4 -3.6 95 0.1 CALM 0 0 0 0 1033.1 1034.5 0.0
29/01:30am -3.1 -5.6 -3.9 94 0.1 CALM 0 0 0 0 1032.9 1034.3 0.0
29/01:00am -2.7 -5.1 -3.5 94 0.1 CALM 0 0 0 0 1033.3 1034.6 0.0
29/12:30am -2.0 -4.3 -2.7 95 0.2 CALM 0 0 0 0 1033.1 1034.5 0.0
29/12:00am -2.0 -4.4 -2.8 94 0.2 CALM 0 0 0 0 1033.0 1034.4 0.0
 
Date/Time
EST
Tmp

°C
App
Tmp
°C
Dew
Point
°C
Rel
Hum
%
Delta-T

°C
Wind Press
QNH
hPa
Press
MSL
hPa
Rain
since
9 am
mm
Dir
 
Spd
km/h
Gust
km/h
Spd
kts
Gust
kts
28/11:30pm -1.4 -4.1 -2.2 94 0.2 N 2 7 1 4 1033.3 1034.6 0.0
28/11:00pm -0.9 -3.1 -1.6 95 0.2 CALM 0 0 0 0 1033.0 1034.4 0.0
28/10:30pm -1.1 -3.4 -2.2 92 0.3 CALM 0 0 0 0 1033.1 1034.5 0.0
28/10:00pm -0.6 -2.8 -1.9 91 0.4 CALM 0 0 0 0 1033.3 1034.6 0.0
28/09:30pm 0.4 -1.7 -0.7 92 0.4 CALM 0 0 0 0 1033.4 1034.7 0.0
28/09:00pm 0.3 -1.8 -1.0 91 0.5 CALM 0 6 0 3 1033.1 1034.5 0.0
28/08:30pm 1.2 -1.2 -0.6 88 0.7 NNE 2 6 1 3 1032.8 1034.1 0.0
28/08:00pm 2.4 0.4 0.1 85 0.9 CALM 0 0 0 0 1032.7 1034.0 0.0

Latest Capital City Observations: Canberra | Sydney | Melbourne | Brisbane | Adelaide | Perth | Hobart | Darwin

Other Formats:

Comma delimited format used in spreadsheet applications
http://www.bom.gov.au/fwo/IDN60903/IDN60903.95716.axf

JavaScript Object Notation format (JSON) in row-major order
http://www.bom.gov.au/fwo/IDN60903/IDN60903.95716.json